createdAt,value
2022-10-19T00:00:47.525Z,99.90
2022-10-19T00:03:18.263Z,99.90
2022-10-19T00:05:47.414Z,99.90
2022-10-19T00:08:15.428Z,99.90
2022-10-19T00:10:42.059Z,99.90
2022-10-19T00:13:08.647Z,99.90
2022-10-19T00:15:39.914Z,99.90
2022-10-19T00:18:10.040Z,99.90
2022-10-19T00:20:37.082Z,99.90
2022-10-19T00:23:04.118Z,99.90
2022-10-19T00:25:30.833Z,99.90
2022-10-19T00:27:57.436Z,99.90
2022-10-19T00:30:24.030Z,99.90
2022-10-19T00:32:50.656Z,99.90
2022-10-19T00:35:17.333Z,99.90
2022-10-19T00:37:43.947Z,99.90
2022-10-19T00:40:10.971Z,99.90
2022-10-19T00:42:37.629Z,99.90
2022-10-19T00:45:12.536Z,99.90
2022-10-19T00:47:39.782Z,99.90
2022-10-19T00:50:06.946Z,99.90
2022-10-19T00:52:33.817Z,99.90
2022-10-19T00:55:01.327Z,99.90
2022-10-19T00:57:29.666Z,99.90
2022-10-19T00:59:57.505Z,99.90
2022-10-19T01:02:24.370Z,99.90
2022-10-19T01:04:52.302Z,99.90
2022-10-19T01:07:19.634Z,99.90
2022-10-19T01:09:46.448Z,99.90
2022-10-19T01:12:20.479Z,99.90
2022-10-19T01:15:13.353Z,99.90
2022-10-19T01:17:49.177Z,99.90
2022-10-19T01:20:21.592Z,99.90
2022-10-19T01:22:48.176Z,99.90
2022-10-19T01:25:39.200Z,99.90
2022-10-19T01:28:34.539Z,99.90
2022-10-19T01:31:28.321Z,99.90
2022-10-19T01:34:00.049Z,99.90
2022-10-19T01:36:38.487Z,99.90
2022-10-19T01:39:26.399Z,99.90
2022-10-19T01:42:30.745Z,99.90
2022-10-19T01:45:25.767Z,99.90
2022-10-19T01:47:58.443Z,99.90
2022-10-19T01:50:37.672Z,99.90
2022-10-19T01:53:07.949Z,99.90
2022-10-19T01:55:38.130Z,99.90
2022-10-19T01:58:10.159Z,99.90
2022-10-19T02:00:41.468Z,99.90
2022-10-19T02:03:10.124Z,99.90
2022-10-19T02:05:38.924Z,99.90
2022-10-19T02:08:13.456Z,99.90
2022-10-19T02:10:42.662Z,99.90
2022-10-19T02:13:10.016Z,99.90
2022-10-19T02:15:40.396Z,99.90
2022-10-19T02:18:08.359Z,99.90
2022-10-19T02:20:37.069Z,99.90
2022-10-19T02:23:06.990Z,99.90
2022-10-19T02:25:34.331Z,99.90
2022-10-19T02:28:02.668Z,99.90
2022-10-19T02:30:29.393Z,99.90
2022-10-19T02:32:56.160Z,99.90
2022-10-19T02:35:22.962Z,99.90
2022-10-19T02:37:49.782Z,99.90
2022-10-19T02:40:16.629Z,99.90
2022-10-19T02:42:48.617Z,99.90
2022-10-19T02:45:29.072Z,99.90
2022-10-19T02:48:01.120Z,99.90
2022-10-19T02:50:27.960Z,99.90
2022-10-19T02:52:54.572Z,99.90
2022-10-19T02:55:21.329Z,99.90
2022-10-19T02:57:47.989Z,99.90
2022-10-19T03:00:14.754Z,99.90
2022-10-19T03:02:42.501Z,99.90
2022-10-19T03:05:09.929Z,99.90
2022-10-19T03:07:37.011Z,99.90
2022-10-19T03:10:05.157Z,99.90
2022-10-19T03:12:31.790Z,99.90
2022-10-19T03:14:58.435Z,99.90
2022-10-19T03:17:25.017Z,99.90
2022-10-19T03:19:51.610Z,99.90
2022-10-19T03:22:18.204Z,99.90
2022-10-19T03:24:44.788Z,99.90
2022-10-19T03:27:11.385Z,99.90
2022-10-19T03:29:37.983Z,99.90
2022-10-19T03:32:05.740Z,99.90
2022-10-19T03:34:32.327Z,99.90
2022-10-19T03:36:59.108Z,99.90
2022-10-19T03:39:26.019Z,99.90
2022-10-19T03:41:52.623Z,99.90
2022-10-19T03:44:19.254Z,99.90
2022-10-19T03:46:45.839Z,99.90
2022-10-19T03:49:12.633Z,99.90
2022-10-19T03:51:39.265Z,99.90
2022-10-19T03:54:08.621Z,99.90
2022-10-19T03:56:36.278Z,99.90
2022-10-19T03:59:04.709Z,99.90
2022-10-19T04:01:41.288Z,99.90
2022-10-19T04:04:12.051Z,99.90
2022-10-19T04:06:41.601Z,99.90
2022-10-19T04:09:09.834Z,99.90
2022-10-19T04:11:37.423Z,99.90
2022-10-19T04:14:04.516Z,99.90
2022-10-19T04:16:31.824Z,99.90
2022-10-19T04:18:58.916Z,99.90
2022-10-19T04:21:33.767Z,99.90
2022-10-19T04:24:06.683Z,99.90
2022-10-19T04:26:34.527Z,99.90
2022-10-19T04:29:01.693Z,99.90
2022-10-19T04:31:28.908Z,99.90
2022-10-19T04:33:56.199Z,99.90
2022-10-19T04:36:23.436Z,99.90
2022-10-19T04:38:50.090Z,99.90
2022-10-19T04:41:20.565Z,99.90
2022-10-19T04:43:47.653Z,99.90
2022-10-19T04:46:17.450Z,99.90
2022-10-19T04:48:45.096Z,99.90
2022-10-19T04:51:12.287Z,99.90
2022-10-19T04:53:40.253Z,99.90
2022-10-19T04:56:14.101Z,99.90
2022-10-19T04:58:40.870Z,99.90
2022-10-19T05:01:11.645Z,99.90
2022-10-19T05:03:38.359Z,99.90
2022-10-19T05:06:05.514Z,99.90
2022-10-19T05:08:32.253Z,99.90
2022-10-19T05:11:11.316Z,99.90
2022-10-19T05:13:38.724Z,99.90
2022-10-19T05:16:07.253Z,99.90
2022-10-19T05:18:34.954Z,99.90
2022-10-19T05:21:13.272Z,99.90
2022-10-19T05:23:41.306Z,99.90
2022-10-19T05:26:12.800Z,99.90
2022-10-19T05:28:40.039Z,99.90
2022-10-19T05:31:15.229Z,99.90
2022-10-19T05:33:42.778Z,99.90
2022-10-19T05:36:16.834Z,99.90
2022-10-19T05:38:44.950Z,99.90
2022-10-19T05:41:18.282Z,99.90
2022-10-19T05:43:46.208Z,99.90
2022-10-19T05:46:17.395Z,99.90
2022-10-19T05:48:47.316Z,99.90
2022-10-19T05:51:16.959Z,99.90
2022-10-19T05:53:44.079Z,99.90
2022-10-19T05:56:16.733Z,99.90
2022-10-19T05:58:43.937Z,99.90
2022-10-19T06:01:11.525Z,99.90
2022-10-19T06:03:38.325Z,99.90
2022-10-19T06:06:06.914Z,99.90
2022-10-19T06:08:34.154Z,99.90
2022-10-19T06:11:10.172Z,99.90
2022-10-19T06:13:37.923Z,99.90
2022-10-19T06:16:05.926Z,99.90
2022-10-19T06:18:32.847Z,99.90
2022-10-19T06:21:08.282Z,99.90
2022-10-19T06:23:35.727Z,99.90
2022-10-19T06:26:04.283Z,99.90
2022-10-19T06:28:30.948Z,99.90
2022-10-19T06:30:58.695Z,99.90
2022-10-19T06:33:26.993Z,99.90
2022-10-19T06:35:54.000Z,99.90
2022-10-19T06:38:20.644Z,99.90
2022-10-19T06:40:49.015Z,99.90
2022-10-19T06:43:15.967Z,99.90
2022-10-19T06:45:42.562Z,99.90
2022-10-19T06:48:09.220Z,99.90
2022-10-19T06:50:35.899Z,99.90
2022-10-19T06:53:02.631Z,99.90
2022-10-19T06:55:29.327Z,99.90
2022-10-19T06:57:56.109Z,99.90
2022-10-19T07:00:22.714Z,99.90
2022-10-19T07:02:49.321Z,99.90
2022-10-19T07:05:16.006Z,99.90
2022-10-19T07:07:42.966Z,99.90
2022-10-19T07:10:09.741Z,99.90
2022-10-19T07:12:36.426Z,99.90
2022-10-19T07:15:03.321Z,99.90
2022-10-19T07:17:30.188Z,99.90
2022-10-19T07:19:57.194Z,99.90
2022-10-19T07:22:27.957Z,99.90
2022-10-19T07:24:54.982Z,99.90
2022-10-19T07:27:22.043Z,99.90
2022-10-19T07:29:48.635Z,99.90
2022-10-19T07:32:15.263Z,99.90
2022-10-19T07:34:41.862Z,99.90
2022-10-19T07:37:08.477Z,99.90
2022-10-19T07:39:35.045Z,99.90
2022-10-19T07:42:01.640Z,99.90
2022-10-19T07:44:29.347Z,99.90
2022-10-19T07:46:55.931Z,99.90
2022-10-19T07:49:22.625Z,99.90
2022-10-19T07:51:53.814Z,99.90
2022-10-19T07:54:21.316Z,99.90
2022-10-19T07:56:51.006Z,99.90
2022-10-19T07:59:17.759Z,99.90
2022-10-19T08:01:45.133Z,99.90
2022-10-19T08:06:58.691Z,99.90
2022-10-19T08:09:51.492Z,99.90
2022-10-19T08:12:15.101Z,99.90
2022-10-19T08:14:42.297Z,99.90
2022-10-19T08:17:11.882Z,99.90
2022-10-19T08:19:47.761Z,99.90
2022-10-19T08:22:14.382Z,99.90
2022-10-19T08:24:40.970Z,99.90
2022-10-19T08:27:07.683Z,99.90
2022-10-19T08:29:34.292Z,99.90
2022-10-19T08:32:00.897Z,99.90
2022-10-19T08:34:27.680Z,99.90
2022-10-19T08:36:56.348Z,99.90
2022-10-19T08:39:23.869Z,99.90
2022-10-19T08:42:03.804Z,99.90
2022-10-19T08:44:39.435Z,99.90
2022-10-19T08:47:32.218Z,99.90
2022-10-19T08:49:59.733Z,99.90
2022-10-19T08:52:34.264Z,99.90
2022-10-19T08:55:07.153Z,99.90
2022-10-19T08:57:55.780Z,99.90
2022-10-19T09:00:43.170Z,99.90
2022-10-19T09:03:56.093Z,99.90
2022-10-19T09:06:37.088Z,99.90
2022-10-19T09:09:05.532Z,99.90
2022-10-19T09:11:42.660Z,99.90
2022-10-19T09:14:18.197Z,99.90
2022-10-19T09:16:46.202Z,99.90
2022-10-19T09:19:21.897Z,99.90
2022-10-19T09:21:56.856Z,99.90
2022-10-19T09:24:29.891Z,99.90
2022-10-19T09:27:01.934Z,99.90
2022-10-19T09:29:38.860Z,99.90
2022-10-19T09:32:16.983Z,99.90
2022-10-19T09:34:52.164Z,99.90
2022-10-19T09:37:25.919Z,99.90
2022-10-19T09:39:55.126Z,99.90
2022-10-19T09:42:32.920Z,99.90
2022-10-19T09:45:02.822Z,99.90
2022-10-19T09:47:32.760Z,99.90
2022-10-19T09:50:20.493Z,99.90
2022-10-19T09:52:51.937Z,99.90
2022-10-19T09:55:29.316Z,99.90
2022-10-19T09:58:15.028Z,99.90
2022-10-19T10:00:56.255Z,99.90
2022-10-19T10:03:43.392Z,99.90
2022-10-19T10:06:16.232Z,99.90
2022-10-19T10:08:58.025Z,99.90
2022-10-19T10:11:34.638Z,99.90
2022-10-19T10:14:09.931Z,99.90
2022-10-19T10:16:36.827Z,99.90
2022-10-19T10:19:11.765Z,99.90
2022-10-19T10:21:54.542Z,99.90
2022-10-19T10:24:26.894Z,99.90
2022-10-19T10:26:54.921Z,99.90
2022-10-19T10:29:36.304Z,99.90
2022-10-19T10:32:16.282Z,99.90
2022-10-19T10:35:01.381Z,99.90
2022-10-19T10:37:37.300Z,99.90
2022-10-19T10:40:05.636Z,99.90
2022-10-19T10:42:41.229Z,99.90
2022-10-19T10:45:26.010Z,99.90
2022-10-19T10:47:53.465Z,99.90
2022-10-19T10:50:27.677Z,99.90
2022-10-19T10:53:06.307Z,99.70
2022-10-19T10:55:34.093Z,99.90
2022-10-19T10:58:06.804Z,99.90
2022-10-19T11:00:35.408Z,99.80
2022-10-19T11:03:10.924Z,99.90
2022-10-19T11:05:41.846Z,98.90
2022-10-19T11:08:24.816Z,97.70
2022-10-19T11:11:02.078Z,98.40
2022-10-19T11:13:43.829Z,98.90
2022-10-19T11:16:17.310Z,97.60
2022-10-19T11:18:50.080Z,96.70
2022-10-19T11:21:55.038Z,95.90
2022-10-19T11:25:10.506Z,93.70
2022-10-19T11:28:13.903Z,94.20
2022-10-19T11:31:20.259Z,94.60
2022-10-19T11:34:04.511Z,94.80
2022-10-19T11:36:46.166Z,93.40
2022-10-19T11:39:43.607Z,94.30
2022-10-19T11:42:23.683Z,93.00
2022-10-19T11:45:03.853Z,94.30
2022-10-19T11:47:36.856Z,93.90
2022-10-19T11:50:29.686Z,95.10
2022-10-19T11:53:22.826Z,94.20
2022-10-19T11:56:08.971Z,93.10
2022-10-19T11:58:57.073Z,94.40
2022-10-19T12:01:44.887Z,94.90
2022-10-19T12:04:34.303Z,95.00
2022-10-19T12:07:21.588Z,95.20
2022-10-19T12:09:56.957Z,95.40
2022-10-19T12:13:01.232Z,95.40
2022-10-19T12:15:38.029Z,95.70
2022-10-19T12:18:30.472Z,96.80
2022-10-19T12:21:01.847Z,95.30
2022-10-19T12:23:31.424Z,94.70
2022-10-19T12:26:04.771Z,96.70
2022-10-19T12:28:34.588Z,96.80
2022-10-19T12:31:02.921Z,97.10
2022-10-19T12:34:02.300Z,95.40
2022-10-19T12:36:50.130Z,95.70
2022-10-19T12:39:40.867Z,96.50
2022-10-19T12:42:16.925Z,96.80
2022-10-19T12:45:09.321Z,97.00
2022-10-19T12:47:36.283Z,96.50
2022-10-19T12:50:03.720Z,97.60
2022-10-19T12:52:42.384Z,95.90
2022-10-19T12:55:12.220Z,96.80
2022-10-19T12:57:40.209Z,98.00
2022-10-19T13:00:23.291Z,98.50
2022-10-19T13:03:25.069Z,97.90
2022-10-19T13:06:04.164Z,98.10
2022-10-19T13:08:39.155Z,97.40
2022-10-19T13:11:09.920Z,97.30
2022-10-19T13:14:14.053Z,98.70
2022-10-19T13:16:57.110Z,99.10
2022-10-19T13:19:23.923Z,99.10
2022-10-19T13:21:51.993Z,99.90
2022-10-19T13:24:24.292Z,99.90
2022-10-19T13:27:02.846Z,99.90
2022-10-19T13:29:38.697Z,99.90
2022-10-19T13:32:31.415Z,99.90
2022-10-19T13:35:30.263Z,99.90
2022-10-19T13:38:09.106Z,99.90
2022-10-19T13:40:56.759Z,99.90
2022-10-19T13:43:38.378Z,99.90
2022-10-19T13:46:14.587Z,99.90
2022-10-19T13:49:04.700Z,99.90
2022-10-19T13:52:09.180Z,99.90
2022-10-19T13:55:21.141Z,99.90
2022-10-19T13:58:27.197Z,99.90
2022-10-19T14:01:22.566Z,99.90
2022-10-19T14:03:52.339Z,99.90
2022-10-19T14:06:38.670Z,99.90
2022-10-19T14:09:28.428Z,99.90
2022-10-19T14:12:06.886Z,99.90
2022-10-19T14:17:28.484Z,99.90
2022-10-19T14:19:57.729Z,99.90
2022-10-19T14:22:42.167Z,99.90
2022-10-19T14:25:27.395Z,99.90
2022-10-19T14:28:17.272Z,99.90
2022-10-19T14:30:44.446Z,99.90
2022-10-19T14:33:14.749Z,99.90
2022-10-19T14:35:45.406Z,99.90
2022-10-19T14:38:21.596Z,99.90
2022-10-19T14:40:48.287Z,99.90
2022-10-19T14:43:26.984Z,99.90
2022-10-19T14:46:13.332Z,99.90
2022-10-19T14:48:46.187Z,99.90
2022-10-19T14:51:24.688Z,99.90
2022-10-19T14:53:57.826Z,99.90
2022-10-19T14:56:37.448Z,99.90
2022-10-19T14:59:20.200Z,99.90
2022-10-19T15:01:56.717Z,99.90
2022-10-19T15:04:28.108Z,99.90
2022-10-19T15:06:55.773Z,99.90
2022-10-19T15:09:37.802Z,99.90
2022-10-19T15:12:21.354Z,99.90
2022-10-19T15:14:48.554Z,99.90
2022-10-19T15:17:27.168Z,99.90
2022-10-19T15:19:55.997Z,99.90
2022-10-19T15:22:32.196Z,99.90
2022-10-19T15:25:08.078Z,99.90
2022-10-19T15:27:42.210Z,99.90
2022-10-19T15:30:17.602Z,99.90
2022-10-19T15:32:52.830Z,99.90
2022-10-19T15:35:30.250Z,99.90
2022-10-19T15:38:23.094Z,99.90
2022-10-19T15:40:57.008Z,99.90
2022-10-19T15:43:34.431Z,99.90
2022-10-19T15:46:06.763Z,99.90
2022-10-19T15:48:44.277Z,99.90
2022-10-19T15:51:26.200Z,99.90
2022-10-19T15:53:58.234Z,99.90
2022-10-19T15:56:27.536Z,99.90
2022-10-19T15:58:56.665Z,99.90
2022-10-19T16:01:26.174Z,99.90
2022-10-19T16:03:53.776Z,99.90
2022-10-19T16:06:22.354Z,99.90
2022-10-19T16:08:51.080Z,99.90
2022-10-19T16:11:19.494Z,99.90
2022-10-19T16:13:46.137Z,99.90
2022-10-19T16:16:21.036Z,99.90
2022-10-19T16:18:48.061Z,99.90
2022-10-19T16:21:15.502Z,99.90
2022-10-19T16:23:42.384Z,99.90
2022-10-19T16:26:09.291Z,99.90
2022-10-19T16:28:36.186Z,99.90
2022-10-19T16:31:02.888Z,99.90
2022-10-19T16:33:29.469Z,99.90
2022-10-19T16:35:56.045Z,99.90
2022-10-19T16:38:22.688Z,99.90
2022-10-19T16:40:49.279Z,99.90
2022-10-19T16:43:15.953Z,99.90
2022-10-19T16:45:43.537Z,99.90
2022-10-19T16:48:13.275Z,99.90
2022-10-19T16:50:39.950Z,99.90
2022-10-19T16:53:11.064Z,99.90
2022-10-19T16:55:39.753Z,99.90
2022-10-19T16:58:07.098Z,99.90
2022-10-19T17:00:35.269Z,99.90
2022-10-19T17:03:01.982Z,99.90
2022-10-19T17:05:28.727Z,99.90
2022-10-19T17:07:55.317Z,99.90
2022-10-19T17:10:22.017Z,99.90
2022-10-19T17:12:48.617Z,99.90
2022-10-19T17:15:41.345Z,99.90
2022-10-19T17:18:01.884Z,99.90
2022-10-19T17:20:28.501Z,99.90
2022-10-19T17:22:55.115Z,99.90
2022-10-19T17:25:21.704Z,99.90
2022-10-19T17:27:52.437Z,99.90
2022-10-19T17:30:19.605Z,99.90
2022-10-19T17:32:46.305Z,99.90
2022-10-19T17:35:12.935Z,99.90
2022-10-19T17:37:39.585Z,99.90
2022-10-19T17:40:06.910Z,99.90
2022-10-19T17:42:36.460Z,99.90
2022-10-19T17:45:03.224Z,99.90
2022-10-19T17:47:30.494Z,99.90
2022-10-19T17:49:57.066Z,99.90
2022-10-19T17:52:23.739Z,99.90
2022-10-19T17:55:11.168Z,99.90
2022-10-19T17:57:37.243Z,99.90
2022-10-19T18:00:05.871Z,99.90
2022-10-19T18:02:35.364Z,99.90
2022-10-19T18:05:02.423Z,99.90
2022-10-19T18:07:29.204Z,99.90
2022-10-19T18:09:55.994Z,99.90
2022-10-19T18:12:22.725Z,99.90
2022-10-19T18:14:49.328Z,99.90
2022-10-19T18:17:15.935Z,99.90
2022-10-19T18:19:42.567Z,99.90
2022-10-19T18:22:09.138Z,99.90
2022-10-19T18:24:35.786Z,99.90
2022-10-19T18:27:02.372Z,99.90
2022-10-19T18:29:29.079Z,99.90
2022-10-19T18:31:55.787Z,99.90
2022-10-19T18:34:24.824Z,99.90
2022-10-19T18:36:52.099Z,99.90
2022-10-19T18:39:19.319Z,99.90
2022-10-19T18:41:45.953Z,99.90
2022-10-19T18:44:14.957Z,99.90
2022-10-19T18:46:41.739Z,99.90
2022-10-19T18:49:08.954Z,99.90
2022-10-19T18:51:36.151Z,99.90
2022-10-19T18:54:02.941Z,99.90
2022-10-19T18:56:29.602Z,99.90
2022-10-19T18:58:56.782Z,99.90
2022-10-19T19:01:28.614Z,99.90
2022-10-19T19:03:57.070Z,99.90
2022-10-19T19:06:29.385Z,99.90
2022-10-19T19:08:57.876Z,99.90
2022-10-19T19:11:31.771Z,99.90
2022-10-19T19:14:06.041Z,99.90
2022-10-19T19:16:35.612Z,99.90
2022-10-19T19:19:02.825Z,99.90
2022-10-19T19:21:30.934Z,99.90
2022-10-19T19:24:00.200Z,99.90
2022-10-19T19:26:30.493Z,99.90
2022-10-19T19:28:57.652Z,99.90
2022-10-19T19:31:24.827Z,99.90
2022-10-19T19:33:51.714Z,99.90
2022-10-19T19:36:19.959Z,99.90
2022-10-19T19:38:48.845Z,99.90
2022-10-19T19:41:16.373Z,99.90
2022-10-19T19:43:43.675Z,99.90
2022-10-19T19:46:16.642Z,99.90
2022-10-19T19:48:45.982Z,99.90
2022-10-19T19:51:15.664Z,99.90
2022-10-19T19:53:42.448Z,99.90
2022-10-19T19:56:11.075Z,99.90
2022-10-19T19:58:38.125Z,99.90
2022-10-19T20:01:13.609Z,99.90
2022-10-19T20:03:41.293Z,99.90
2022-10-19T20:06:08.108Z,99.90
2022-10-19T20:08:36.710Z,99.90
2022-10-19T20:11:05.903Z,99.90
2022-10-19T20:13:33.093Z,99.90
2022-10-19T20:16:06.257Z,99.90
2022-10-19T20:18:32.878Z,99.90
2022-10-19T20:21:03.252Z,99.90
2022-10-19T20:23:30.738Z,99.90
2022-10-19T20:25:57.334Z,99.90
2022-10-19T20:28:25.300Z,99.90
2022-10-19T20:31:02.541Z,99.90
2022-10-19T20:33:31.019Z,99.90
2022-10-19T20:36:01.852Z,99.90
2022-10-19T20:38:28.533Z,99.90
2022-10-19T20:40:55.282Z,99.90
2022-10-19T20:43:22.008Z,99.90
2022-10-19T20:45:48.623Z,99.90
2022-10-19T20:48:15.314Z,99.90
2022-10-19T20:50:42.041Z,99.90
2022-10-19T20:53:11.102Z,99.90
2022-10-19T20:55:37.715Z,99.90
2022-10-19T20:58:04.323Z,99.90
2022-10-19T21:00:30.987Z,99.90
2022-10-19T21:02:59.260Z,99.90
2022-10-19T21:05:25.874Z,99.90
2022-10-19T21:07:53.123Z,99.90
2022-10-19T21:10:19.811Z,99.90
2022-10-19T21:12:46.413Z,99.90
2022-10-19T21:15:13.046Z,99.90
2022-10-19T21:17:39.703Z,99.90
2022-10-19T21:20:06.812Z,99.90
2022-10-19T21:22:39.071Z,99.90
2022-10-19T21:25:06.192Z,99.90
2022-10-19T21:27:33.096Z,99.90
2022-10-19T21:29:59.925Z,99.90
2022-10-19T21:32:26.493Z,99.90
2022-10-19T21:34:53.136Z,99.90
2022-10-19T21:37:19.703Z,99.90
2022-10-19T21:39:46.284Z,99.90
2022-10-19T21:42:12.965Z,99.90
2022-10-19T21:44:39.644Z,99.90
2022-10-19T21:47:07.835Z,99.90
2022-10-19T21:49:34.418Z,99.90
2022-10-19T21:52:01.034Z,99.90
2022-10-19T21:54:29.095Z,99.90
2022-10-19T21:56:57.615Z,99.90
2022-10-19T21:59:24.745Z,99.90
2022-10-19T22:01:54.509Z,99.90
2022-10-19T22:04:21.383Z,99.90
2022-10-19T22:06:47.994Z,99.90
2022-10-19T22:09:18.170Z,99.90
2022-10-19T22:11:45.118Z,99.90
2022-10-19T22:14:13.713Z,99.90
2022-10-19T22:16:41.264Z,99.90
2022-10-19T22:19:08.656Z,99.90
2022-10-19T22:21:35.576Z,99.90
2022-10-19T22:24:09.022Z,99.90
2022-10-19T22:26:38.646Z,99.90
2022-10-19T22:29:07.313Z,99.90
2022-10-19T22:31:35.819Z,99.90
2022-10-19T22:34:08.288Z,99.90
2022-10-19T22:36:34.968Z,99.90
2022-10-19T22:39:01.625Z,99.90
2022-10-19T22:41:28.202Z,99.90
2022-10-19T22:43:54.838Z,99.90
2022-10-19T22:46:21.450Z,99.90
2022-10-19T22:48:48.009Z,99.90
2022-10-19T22:51:14.687Z,99.90
2022-10-19T22:53:41.429Z,99.90
2022-10-19T22:56:10.754Z,99.90
2022-10-19T22:58:37.562Z,99.90
2022-10-19T23:01:10.189Z,99.90
2022-10-19T23:03:39.271Z,99.90
2022-10-19T23:06:08.008Z,99.90
2022-10-19T23:08:35.039Z,99.90
2022-10-19T23:11:01.680Z,99.90
2022-10-19T23:13:28.576Z,99.90
2022-10-19T23:15:55.185Z,99.90
2022-10-19T23:18:21.806Z,99.90
2022-10-19T23:20:56.649Z,99.90
2022-10-19T23:23:23.839Z,99.90
2022-10-19T23:26:06.551Z,99.90
2022-10-19T23:28:35.971Z,99.90
2022-10-19T23:31:08.992Z,99.90
2022-10-19T23:33:35.926Z,99.90
2022-10-19T23:36:07.134Z,99.90
2022-10-19T23:38:34.230Z,99.90
2022-10-19T23:41:01.068Z,99.90
2022-10-19T23:43:28.021Z,99.90
2022-10-19T23:45:55.016Z,99.90
2022-10-19T23:48:21.713Z,99.90
2022-10-19T23:51:00.122Z,99.90
2022-10-19T23:53:28.136Z,99.90
2022-10-19T23:55:59.516Z,99.90
2022-10-19T23:58:26.546Z,99.90
